Wed, 14 Apr 2021 11:00:00 UTC

Information for RPM brotli-1.0.7-9.fc32.aarch64.rpm

ID19841045
Namebrotli
Version1.0.7
Release9.fc32
Epoch
Archaarch64
SummaryLossless compression algorithm
DescriptionBrotli is a generic-purpose lossless compression algorithm that compresses data using a combination of a modern variant of the LZ77 algorithm, Huffman coding and 2nd order context modeling, with a compression ratio comparable to the best currently available general-purpose compression methods. It is similar in speed with deflate but offers more dense compression.
Build Time2019-12-10 23:30:41 GMT
Size327,693
93955596e1aac09670b6e421909b15f1
LicenseMIT
Buildrootf32-build-18419387-1313909
Provides
brotli = 1.0.7-9.fc32
brotli(aarch-64) = 1.0.7-9.fc32
Obsoletes No Obsoletes
Conflicts No Conflicts
Requires
ld-linux-aarch64.so.1()(64bit)
ld-linux-aarch64.so.1(GLIBC_2.17)(64bit)
libbrotli(aarch-64) = 1.0.7-9.fc32
libc.so.6()(64bit)
libc.so.6(GLIBC_2.17)(64bit)
libm.so.6()(64bit)
libm.so.6(GLIBC_2.29)(64bit)
rpmlib(CompressedFileNames) <= 3.0.4-1
rpmlib(FileDigests) <= 4.6.0-1
rpmlib(PayloadFilesHavePrefix) <= 4.0-1
rpmlib(PayloadIsZstd) <= 5.4.18-1
rtld(GNU_HASH)
Recommends No Recommends
Suggests No Suggests
Supplements No Supplements
Enhances No Enhances
Files
1 through 4 of 4
Name descending sort Size
/usr/lib/.build-id/0a/dd2e1cdd10b81fe54eb9b335de9ce7b2f1c2a726
/usr/lib/.build-id/0a0
/usr/lib/.build-id0
/usr/bin/brotli728,008
Component of
Page:
1 through 50 of 1671 >>>
Buildroot descending sort Created State
f32-build-19368728-1352534 2020-02-04 12:12:15 expired
f32-build-19368401-1352394 2020-02-04 09:06:23 expired
f32-build-19368371-1352380 2020-02-04 08:59:22 expired
f32-build-19368252-1352352 2020-02-04 08:25:35 expired
f32-build-19368217-1352345 2020-02-04 08:15:50 expired
f32-build-19368210-1352338 2020-02-04 08:12:38 expired
f32-build-19368150-1352303 2020-02-04 07:43:51 expired
f32-build-19368127-1352294 2020-02-04 07:34:50 expired
f32-build-19367125-1351936 2020-02-03 19:54:26 expired
f32-build-19366957-1351817 2020-02-03 18:00:03 expired
f32-build-19366874-1351770 2020-02-03 17:36:20 expired
f32-build-19366681-1351648 2020-02-03 16:02:36 expired
f32-build-19366544-1351583 2020-02-03 15:12:05 expired
f32-build-19366473-1351551 2020-02-03 14:50:35 expired
f32-build-19366467-1351540 2020-02-03 14:47:13 expired
f32-build-19366313-1351458 2020-02-03 13:55:52 expired
f32-build-19366007-1351362 2020-02-03 12:23:26 expired
f32-build-19365457-1351168 2020-02-03 10:11:28 expired
f32-build-19365407-1351139 2020-02-03 09:58:12 expired
f32-build-19364895-1351012 2020-02-03 07:54:38 expired
f32-build-19363962-1350758 2020-02-02 22:10:47 expired
f32-build-19363898-1350721 2020-02-02 21:36:42 expired
f32-build-19363881-1350714 2020-02-02 21:29:24 expired
f32-build-19363847-1350707 2020-02-02 21:21:42 expired
f32-build-19363823-1350700 2020-02-02 21:14:13 expired
f32-build-19363335-1350581 2020-02-02 17:55:26 expired
f32-build-19363313-1350557 2020-02-02 17:38:54 expired
f32-build-19363278-1350557 2020-02-02 17:18:48 expired
f32-build-19363145-1350470 2020-02-02 14:59:25 expired
f32-build-19363137-1350470 2020-02-02 14:59:02 expired
f32-build-19361808-1350065 2020-02-02 03:54:39 expired
f32-build-19361747-1350046 2020-02-02 03:47:38 expired
f32-build-19361744-1350046 2020-02-02 03:46:57 expired
f32-build-19361622-1350046 2020-02-02 03:40:41 expired
f32-build-19361345-1350046 2020-02-02 03:33:10 expired
f32-build-19360979-1350046 2020-02-02 03:22:58 expired
f32-build-19360861-1350046 2020-02-02 03:20:18 expired
f32-build-19360199-1350037 2020-02-02 02:42:26 expired
f32-build-19359562-1350018 2020-02-02 02:23:26 expired
f32-build-19358561-1350018 2020-02-02 02:00:39 expired
f32-build-19357517-1350001 2020-02-02 01:39:12 expired
f32-build-19357470-1349994 2020-02-02 01:38:02 expired
f32-build-19356867-1349980 2020-02-02 01:23:46 expired
f32-build-19356848-1349980 2020-02-02 01:23:24 expired
f32-build-19356761-1349980 2020-02-02 01:21:24 expired
f32-build-19356450-1349980 2020-02-02 01:14:28 expired
f32-build-19355549-1349980 2020-02-02 00:54:58 expired
f32-build-19354070-1349871 2020-02-01 20:32:25 expired
f32-build-19353581-1349593 2020-02-01 14:04:12 expired
f32-build-19353450-1349572 2020-02-01 13:04:16 expired